createdAt,value
2022-10-25T00:01:19.025Z,12.10
2022-10-25T00:03:47.191Z,12.00
2022-10-25T00:06:16.239Z,12.00
2022-10-25T00:08:44.127Z,11.90
2022-10-25T00:11:17.386Z,11.90
2022-10-25T00:13:45.247Z,11.90
2022-10-25T00:16:16.332Z,11.80
2022-10-25T00:18:44.248Z,11.80
2022-10-25T00:21:12.184Z,11.80
2022-10-25T00:23:40.036Z,11.70
2022-10-25T00:26:10.825Z,11.80
2022-10-25T00:28:39.299Z,11.80
2022-10-25T00:31:10.026Z,11.80
2022-10-25T00:33:40.552Z,11.80
2022-10-25T00:36:10.903Z,11.80
2022-10-25T00:38:39.725Z,11.80
2022-10-25T00:41:08.436Z,11.80
2022-10-25T00:43:38.554Z,11.80
2022-10-25T00:46:11.673Z,11.90
2022-10-25T00:48:43.145Z,12.00
2022-10-25T00:51:11.235Z,11.90
2022-10-25T00:53:39.284Z,11.90
2022-10-25T00:56:14.351Z,11.90
2022-10-25T00:58:44.836Z,12.00
2022-10-25T01:01:14.492Z,12.00
2022-10-25T01:03:46.671Z,12.00
2022-10-25T01:06:20.772Z,11.90
2022-10-25T01:08:50.540Z,11.90
2022-10-25T01:11:18.650Z,11.90
2022-10-25T01:13:47.116Z,11.80
2022-10-25T01:16:25.750Z,11.80
2022-10-25T01:19:02.076Z,11.80
2022-10-25T01:21:46.493Z,11.80
2022-10-25T01:24:55.650Z,11.80
2022-10-25T01:27:46.648Z,11.80
2022-10-25T01:30:19.893Z,11.80
2022-10-25T01:33:06.859Z,11.80
2022-10-25T01:35:43.724Z,11.80
2022-10-25T01:38:26.298Z,11.80
2022-10-25T01:41:02.324Z,11.80
2022-10-25T01:43:38.906Z,11.80
2022-10-25T01:46:12.934Z,11.80
2022-10-25T01:48:48.722Z,11.80
2022-10-25T01:51:18.695Z,11.80
2022-10-25T01:53:48.018Z,11.80
2022-10-25T01:56:24.020Z,11.80
2022-10-25T01:59:13.332Z,11.70
2022-10-25T02:01:53.491Z,11.70
2022-10-25T02:04:31.691Z,11.70
2022-10-25T02:07:05.632Z,11.70
2022-10-25T02:09:40.197Z,11.70
2022-10-25T02:12:14.855Z,11.60
2022-10-25T02:14:50.010Z,11.60
2022-10-25T02:17:20.600Z,11.50
2022-10-25T02:19:53.456Z,11.40
2022-10-25T02:22:24.450Z,11.40
2022-10-25T02:24:54.298Z,11.40
2022-10-25T02:27:23.863Z,11.40
2022-10-25T02:29:53.646Z,11.30
2022-10-25T02:32:22.016Z,11.30
2022-10-25T02:34:52.359Z,11.20
2022-10-25T02:37:20.216Z,11.20
2022-10-25T02:39:49.172Z,11.20
2022-10-25T02:42:17.025Z,11.20
2022-10-25T02:44:44.927Z,11.30
2022-10-25T02:47:12.987Z,11.30
2022-10-25T02:49:41.229Z,11.30
2022-10-25T02:52:10.420Z,11.30
2022-10-25T02:54:38.304Z,11.30
2022-10-25T02:57:06.192Z,11.30
2022-10-25T02:59:34.079Z,11.30
2022-10-25T03:02:01.966Z,11.20
2022-10-25T03:04:29.900Z,11.20
2022-10-25T03:06:58.104Z,11.20
2022-10-25T03:09:27.353Z,11.20
2022-10-25T03:11:55.236Z,11.20
2022-10-25T03:14:23.120Z,11.20
2022-10-25T03:16:51.000Z,11.20
2022-10-25T03:19:18.861Z,11.20
2022-10-25T03:21:46.755Z,11.20
2022-10-25T03:24:14.627Z,11.20
2022-10-25T03:26:43.836Z,11.20
2022-10-25T03:29:11.733Z,11.20
2022-10-25T03:31:40.069Z,11.20
2022-10-25T03:34:07.944Z,11.20
2022-10-25T03:36:35.858Z,11.10
2022-10-25T03:39:03.820Z,11.10
2022-10-25T03:41:31.693Z,11.10
2022-10-25T03:44:01.002Z,11.10
2022-10-25T03:46:28.922Z,11.10
2022-10-25T03:48:56.801Z,11.10
2022-10-25T03:51:24.722Z,11.20
2022-10-25T03:53:52.643Z,11.10
2022-10-25T03:56:20.554Z,11.10
2022-10-25T03:58:48.418Z,11.10
2022-10-25T04:01:17.736Z,11.10
2022-10-25T04:03:45.877Z,11.10
2022-10-25T04:06:13.866Z,11.10
2022-10-25T04:08:41.816Z,11.20
2022-10-25T04:11:09.689Z,11.20
2022-10-25T04:13:37.630Z,11.20
2022-10-25T04:16:07.859Z,11.20
2022-10-25T04:18:37.532Z,11.20
2022-10-25T04:21:05.526Z,11.20
2022-10-25T04:23:33.471Z,11.10
2022-10-25T04:26:01.483Z,11.10
2022-10-25T04:28:29.359Z,11.10
2022-10-25T04:30:57.243Z,11.10
2022-10-25T04:33:25.220Z,11.10
2022-10-25T04:35:58.101Z,11.10
2022-10-25T04:38:26.444Z,11.10
2022-10-25T04:40:56.176Z,11.10
2022-10-25T04:43:24.532Z,11.00
2022-10-25T04:45:52.673Z,11.00
2022-10-25T04:48:21.392Z,11.00
2022-10-25T04:50:49.361Z,10.90
2022-10-25T04:53:18.641Z,10.90
2022-10-25T04:55:55.894Z,10.80
2022-10-25T04:58:28.820Z,10.80
2022-10-25T05:01:02.510Z,10.70
2022-10-25T05:03:31.119Z,10.60
2022-10-25T05:06:06.758Z,10.50
2022-10-25T05:08:36.556Z,10.50
2022-10-25T05:11:05.039Z,10.30
2022-10-25T05:13:34.334Z,10.20
2022-10-25T05:16:02.499Z,10.20
2022-10-25T05:18:32.024Z,10.10
2022-10-25T05:21:04.234Z,10.10
2022-10-25T05:23:33.202Z,10.10
2022-10-25T05:26:04.292Z,10.10
2022-10-25T05:28:32.536Z,10.10
2022-10-25T05:31:04.742Z,10.10
2022-10-25T05:33:33.519Z,10.10
2022-10-25T05:36:02.437Z,10.10
2022-10-25T05:38:34.210Z,10.00
2022-10-25T05:41:07.425Z,10.00
2022-10-25T05:43:35.481Z,10.00
2022-10-25T05:46:05.797Z,10.00
2022-10-25T05:48:35.147Z,10.00
2022-10-25T05:51:28.727Z,10.00
2022-10-25T05:54:00.625Z,10.00
2022-10-25T05:56:30.983Z,10.00
2022-10-25T05:58:59.431Z,9.90
2022-10-25T06:01:27.957Z,9.90
2022-10-25T06:03:56.990Z,9.80
2022-10-25T06:06:25.350Z,9.90
2022-10-25T06:08:57.418Z,9.90
2022-10-25T06:11:26.040Z,9.90
2022-10-25T06:13:55.603Z,10.00
2022-10-25T06:16:23.991Z,10.00
2022-10-25T06:18:52.161Z,10.10
2022-10-25T06:21:21.972Z,10.20
2022-10-25T06:23:50.376Z,10.30
2022-10-25T06:26:20.413Z,10.30
2022-10-25T06:28:48.969Z,10.40
2022-10-25T06:31:19.557Z,10.50
2022-10-25T06:33:47.839Z,10.50
2022-10-25T06:36:18.040Z,10.50
2022-10-25T06:38:46.865Z,10.50
2022-10-25T06:41:17.571Z,10.60
2022-10-25T06:43:45.819Z,10.60
2022-10-25T06:46:21.436Z,10.70
2022-10-25T06:48:49.864Z,10.70
2022-10-25T06:51:17.959Z,10.80
2022-10-25T06:53:45.940Z,10.80
2022-10-25T06:56:15.339Z,10.80
2022-10-25T06:58:43.369Z,10.80
2022-10-25T07:01:13.185Z,10.80
2022-10-25T07:03:43.307Z,10.80
2022-10-25T07:06:13.484Z,10.90
2022-10-25T07:08:43.106Z,10.90
2022-10-25T07:11:15.268Z,10.90
2022-10-25T07:13:43.507Z,10.90
2022-10-25T07:16:13.281Z,10.90
2022-10-25T07:18:43.215Z,10.90
2022-10-25T07:21:13.894Z,10.90
2022-10-25T07:23:43.039Z,11.00
2022-10-25T07:26:13.398Z,11.00
2022-10-25T07:28:41.999Z,11.10
2022-10-25T07:31:13.553Z,11.10
2022-10-25T07:33:42.910Z,11.20
2022-10-25T07:36:12.295Z,11.20
2022-10-25T07:38:40.482Z,11.30
2022-10-25T07:41:09.174Z,11.30
2022-10-25T07:43:37.370Z,11.40
2022-10-25T07:46:05.956Z,11.40
2022-10-25T07:48:34.328Z,11.50
2022-10-25T07:51:05.893Z,11.50
2022-10-25T07:53:34.066Z,11.60
2022-10-25T07:56:01.973Z,11.70
2022-10-25T07:58:29.994Z,11.80
2022-10-25T08:01:02.682Z,11.80
2022-10-25T08:03:30.789Z,11.90
2022-10-25T08:05:58.810Z,11.90
2022-10-25T08:08:28.438Z,12.00
2022-10-25T08:10:56.522Z,12.30
2022-10-25T08:13:24.719Z,12.50
2022-10-25T08:15:53.637Z,12.50
2022-10-25T08:18:21.853Z,12.60
2022-10-25T08:21:01.907Z,12.80
2022-10-25T08:23:33.436Z,12.90
2022-10-25T08:26:01.767Z,13.10
2022-10-25T08:28:31.156Z,13.10
2022-10-25T08:31:01.026Z,13.20
2022-10-25T08:33:29.383Z,13.40
2022-10-25T08:35:57.422Z,13.30
2022-10-25T08:38:25.350Z,13.40
2022-10-25T08:41:03.085Z,13.50
2022-10-25T08:43:52.666Z,13.60
2022-10-25T08:46:23.448Z,13.60
2022-10-25T08:48:58.895Z,13.50
2022-10-25T08:51:30.830Z,13.50
2022-10-25T08:54:04.092Z,13.40
2022-10-25T08:56:37.200Z,13.30
2022-10-25T08:59:07.981Z,13.30
2022-10-25T09:01:41.600Z,13.40
2022-10-25T09:04:10.449Z,13.60
2022-10-25T09:06:44.706Z,13.80
2022-10-25T09:09:25.341Z,14.10
2022-10-25T09:12:06.708Z,14.10
2022-10-25T09:14:44.116Z,14.00
2022-10-25T09:17:18.583Z,14.00
2022-10-25T09:20:05.145Z,13.90
2022-10-25T09:22:42.598Z,13.90
2022-10-25T09:25:18.465Z,14.00
2022-10-25T09:27:57.645Z,13.90
2022-10-25T09:30:25.623Z,13.90
2022-10-25T09:32:57.391Z,13.90
2022-10-25T09:35:29.265Z,14.10
2022-10-25T09:38:01.717Z,14.20
2022-10-25T09:40:35.812Z,14.40
2022-10-25T09:43:11.329Z,14.60
2022-10-25T09:45:46.246Z,14.60
2022-10-25T09:48:21.209Z,14.50
2022-10-25T09:50:53.152Z,14.50
2022-10-25T09:53:23.943Z,14.40
2022-10-25T09:55:54.181Z,14.40
2022-10-25T09:58:25.344Z,14.40
2022-10-25T10:00:57.352Z,14.30
2022-10-25T10:03:29.539Z,14.30
2022-10-25T10:06:00.892Z,14.40
2022-10-25T10:08:32.917Z,14.50
2022-10-25T10:11:01.334Z,14.50
2022-10-25T10:13:39.803Z,14.70
2022-10-25T10:16:20.624Z,15.10
2022-10-25T10:18:48.608Z,15.50
2022-10-25T10:21:19.980Z,15.70
2022-10-25T10:23:52.635Z,15.60
2022-10-25T10:26:32.810Z,15.90
2022-10-25T10:29:14.132Z,16.10
2022-10-25T10:31:49.211Z,16.30
2022-10-25T10:34:26.582Z,16.60
2022-10-25T10:37:05.962Z,16.80
2022-10-25T10:39:34.290Z,16.90
2022-10-25T10:42:15.012Z,17.20
2022-10-25T10:45:02.485Z,17.40
2022-10-25T10:47:34.843Z,17.70
2022-10-25T10:50:10.396Z,17.80
2022-10-25T10:52:41.991Z,17.80
2022-10-25T10:55:18.393Z,17.60
2022-10-25T10:57:46.673Z,17.80
2022-10-25T11:00:24.645Z,17.90
2022-10-25T11:02:54.002Z,18.10
2022-10-25T11:05:26.165Z,18.30
2022-10-25T11:07:57.124Z,18.30
2022-10-25T11:10:28.937Z,18.20
2022-10-25T11:13:11.686Z,17.90
2022-10-25T11:16:01.289Z,17.90
2022-10-25T11:18:39.253Z,17.90
2022-10-25T11:21:14.418Z,18.10
2022-10-25T11:23:52.450Z,18.10
2022-10-25T11:26:26.793Z,18.00
2022-10-25T11:29:03.290Z,17.70
2022-10-25T11:31:45.204Z,17.40
2022-10-25T11:34:23.561Z,17.20
2022-10-25T11:37:05.597Z,17.20
2022-10-25T11:39:48.366Z,17.10
2022-10-25T11:42:44.676Z,17.10
2022-10-25T11:45:41.256Z,17.20
2022-10-25T11:48:41.528Z,17.40
2022-10-25T11:51:20.269Z,17.80
2022-10-25T11:54:14.384Z,18.40
2022-10-25T11:56:56.347Z,18.30
2022-10-25T11:59:32.084Z,18.40
2022-10-25T12:02:24.233Z,18.40
2022-10-25T12:05:09.236Z,18.80
2022-10-25T12:07:44.287Z,19.20
2022-10-25T12:10:19.234Z,19.20
2022-10-25T12:12:52.772Z,19.20
2022-10-25T12:15:24.408Z,19.20
2022-10-25T12:17:53.756Z,19.30
2022-10-25T12:20:26.834Z,19.40
2022-10-25T12:22:58.170Z,19.30
2022-10-25T12:25:30.139Z,18.90
2022-10-25T12:28:06.591Z,18.70
2022-10-25T12:30:36.008Z,18.80
2022-10-25T12:33:14.122Z,19.00
2022-10-25T12:35:50.443Z,19.00
2022-10-25T12:38:33.914Z,19.10
2022-10-25T12:41:07.080Z,19.20
2022-10-25T12:43:42.363Z,19.40
2022-10-25T12:46:49.720Z,19.60
2022-10-25T12:49:49.116Z,19.70
2022-10-25T12:52:29.014Z,19.70
2022-10-25T12:55:27.205Z,19.70
2022-10-25T12:58:05.042Z,19.50
2022-10-25T13:00:38.512Z,19.30
2022-10-25T13:03:43.582Z,19.00
2022-10-25T13:06:27.552Z,18.70
2022-10-25T13:09:02.387Z,18.40
2022-10-25T13:11:35.260Z,18.10
2022-10-25T13:14:04.549Z,17.90
2022-10-25T13:16:34.737Z,17.60
2022-10-25T13:19:49.725Z,17.50
2022-10-25T13:22:39.463Z,17.50
2022-10-25T13:25:18.637Z,17.50
2022-10-25T13:28:20.552Z,17.50
2022-10-25T13:30:48.494Z,17.70
2022-10-25T13:33:33.526Z,17.80
2022-10-25T13:36:06.042Z,18.00
2022-10-25T13:38:40.060Z,18.20
2022-10-25T13:41:20.365Z,18.10
2022-10-25T13:44:19.297Z,18.30
2022-10-25T13:46:48.870Z,18.50
2022-10-25T13:49:31.655Z,18.70
2022-10-25T13:52:01.822Z,18.60
2022-10-25T13:54:44.667Z,18.50
2022-10-25T13:57:47.973Z,18.10
2022-10-25T14:00:47.890Z,17.80
2022-10-25T14:03:35.843Z,17.60
2022-10-25T14:06:09.663Z,17.50
2022-10-25T14:08:54.427Z,17.20
2022-10-25T14:11:27.877Z,17.00
2022-10-25T14:14:03.002Z,16.90
2022-10-25T14:16:33.241Z,16.90
2022-10-25T14:19:06.482Z,17.00
2022-10-25T14:21:34.920Z,17.20
2022-10-25T14:24:10.411Z,17.20
2022-10-25T14:26:38.434Z,17.30
2022-10-25T14:29:21.309Z,17.30
2022-10-25T14:31:49.716Z,17.20
2022-10-25T14:34:21.109Z,17.10
2022-10-25T14:36:51.162Z,16.90
2022-10-25T14:39:20.667Z,16.80
2022-10-25T14:41:53.648Z,16.60
2022-10-25T14:44:25.614Z,16.60
2022-10-25T14:46:54.513Z,16.60
2022-10-25T14:49:23.569Z,16.60
2022-10-25T14:51:54.222Z,16.60
2022-10-25T14:54:27.994Z,16.60
2022-10-25T14:56:59.226Z,16.50
2022-10-25T14:59:32.109Z,16.40
2022-10-25T15:02:02.086Z,16.30
2022-10-25T15:04:32.742Z,16.10
2022-10-25T15:07:02.337Z,16.00
2022-10-25T15:09:42.181Z,15.90
2022-10-25T15:12:19.387Z,15.70
2022-10-25T15:14:49.009Z,15.50
2022-10-25T15:17:19.994Z,15.40
2022-10-25T15:20:08.042Z,15.20
2022-10-25T15:22:43.823Z,15.10
2022-10-25T15:25:20.402Z,15.00
2022-10-25T15:27:49.299Z,14.90
2022-10-25T15:30:38.923Z,14.80
2022-10-25T15:33:11.224Z,14.70
2022-10-25T15:35:48.192Z,14.60
2022-10-25T15:38:17.372Z,14.50
2022-10-25T15:40:45.809Z,14.40
2022-10-25T15:43:13.775Z,14.30
2022-10-25T15:45:44.008Z,14.10
2022-10-25T15:48:15.982Z,13.90
2022-10-25T15:50:47.763Z,13.70
2022-10-25T15:53:15.698Z,13.50
2022-10-25T15:55:44.162Z,13.30
2022-10-25T15:58:12.270Z,13.20
2022-10-25T16:00:40.258Z,13.20
2022-10-25T16:03:12.770Z,13.00
2022-10-25T16:05:40.738Z,12.90
2022-10-25T16:08:09.012Z,12.90
2022-10-25T16:10:37.973Z,12.90
2022-10-25T16:13:10.690Z,12.80
2022-10-25T16:15:38.745Z,12.80
2022-10-25T16:18:06.785Z,12.70
2022-10-25T16:20:36.143Z,12.70
2022-10-25T16:23:04.213Z,12.60
2022-10-25T16:25:33.264Z,12.60
2022-10-25T16:28:02.119Z,12.40
2022-10-25T16:30:33.890Z,12.40
2022-10-25T16:33:01.787Z,12.30
2022-10-25T16:35:29.653Z,12.30
2022-10-25T16:37:59.120Z,12.20
2022-10-25T16:40:27.171Z,12.10
2022-10-25T16:42:55.226Z,12.10
2022-10-25T16:45:26.028Z,12.00
2022-10-25T16:47:56.571Z,12.00
2022-10-25T16:50:25.217Z,11.90
2022-10-25T16:52:53.665Z,11.80
2022-10-25T16:55:23.221Z,11.70
2022-10-25T16:57:51.129Z,11.70
2022-10-25T17:00:19.155Z,11.60
2022-10-25T17:02:47.438Z,11.50
2022-10-25T17:05:21.148Z,11.50
2022-10-25T17:07:50.828Z,11.40
2022-10-25T17:10:20.739Z,11.30
2022-10-25T17:12:52.324Z,11.30
2022-10-25T17:15:21.583Z,11.30
2022-10-25T17:17:49.750Z,11.10
2022-10-25T17:20:18.188Z,11.10
2022-10-25T17:22:46.403Z,11.10
2022-10-25T17:25:14.340Z,11.20
2022-10-25T17:27:47.738Z,11.10
2022-10-25T17:30:17.410Z,11.10
2022-10-25T17:32:45.374Z,11.10
2022-10-25T17:35:13.406Z,11.20
2022-10-25T17:37:43.451Z,11.20
2022-10-25T17:40:13.654Z,11.30
2022-10-25T17:42:41.580Z,11.30
2022-10-25T17:45:10.351Z,11.30
2022-10-25T17:47:42.520Z,11.30
2022-10-25T17:50:12.837Z,11.20
2022-10-25T17:52:42.213Z,11.20
2022-10-25T17:55:11.377Z,11.10
2022-10-25T17:57:39.345Z,11.00
2022-10-25T18:00:08.498Z,10.90
2022-10-25T18:02:36.356Z,10.80
2022-10-25T18:05:19.966Z,10.80
2022-10-25T18:07:49.234Z,10.70
2022-10-25T18:10:17.703Z,10.60
2022-10-25T18:12:45.981Z,10.50
2022-10-25T18:15:14.183Z,10.40
2022-10-25T18:17:43.083Z,10.40
2022-10-25T18:20:13.387Z,10.40
2022-10-25T18:22:41.285Z,10.30
2022-10-25T18:25:10.214Z,10.30
2022-10-25T18:27:38.147Z,10.20
2022-10-25T18:30:07.078Z,10.20
2022-10-25T18:32:36.143Z,10.20
2022-10-25T18:35:04.463Z,10.10
2022-10-25T18:37:33.756Z,10.00
2022-10-25T18:40:01.679Z,9.90
2022-10-25T18:42:29.604Z,9.80
2022-10-25T18:44:57.501Z,9.70
2022-10-25T18:47:25.831Z,9.60
2022-10-25T18:49:53.799Z,9.60
2022-10-25T18:52:22.289Z,9.60
2022-10-25T18:54:53.418Z,9.60
2022-10-25T18:57:21.284Z,9.60
2022-10-25T18:59:49.185Z,9.30
2022-10-25T19:02:17.142Z,9.30
2022-10-25T19:04:45.097Z,9.40
2022-10-25T19:07:13.004Z,9.50
2022-10-25T19:09:40.918Z,9.50
2022-10-25T19:12:10.277Z,9.50
2022-10-25T19:14:38.262Z,9.50
2022-10-25T19:17:06.215Z,9.40
2022-10-25T19:19:34.100Z,9.20
2022-10-25T19:22:01.983Z,9.10
2022-10-25T19:24:29.835Z,9.10
2022-10-25T19:26:57.878Z,9.10
2022-10-25T19:29:27.453Z,9.00
2022-10-25T19:31:57.615Z,9.00
2022-10-25T19:34:25.609Z,9.00
2022-10-25T19:36:53.519Z,9.00
2022-10-25T19:39:21.575Z,9.00
2022-10-25T19:41:50.374Z,9.00
2022-10-25T19:44:18.274Z,9.00
2022-10-25T19:46:49.791Z,8.90
2022-10-25T19:49:17.712Z,8.80
2022-10-25T19:51:45.757Z,8.80
2022-10-25T19:54:13.757Z,8.70
2022-10-25T19:56:41.682Z,8.70
2022-10-25T19:59:12.527Z,8.70
2022-10-25T20:01:42.269Z,8.70
2022-10-25T20:04:13.259Z,8.80
2022-10-25T20:06:41.652Z,8.80
2022-10-25T20:09:10.237Z,8.80
2022-10-25T20:11:38.388Z,8.80
2022-10-25T20:14:06.361Z,8.60
2022-10-25T20:16:34.255Z,8.50
2022-10-25T20:19:03.070Z,8.60
2022-10-25T20:21:34.425Z,8.60
2022-10-25T20:24:04.919Z,8.60
2022-10-25T20:26:34.838Z,8.70
2022-10-25T20:29:05.420Z,8.70
2022-10-25T20:31:34.590Z,8.70
2022-10-25T20:34:02.674Z,8.70
2022-10-25T20:36:32.438Z,8.70
2022-10-25T20:39:00.333Z,8.70
2022-10-25T20:41:30.229Z,8.60
2022-10-25T20:43:59.775Z,8.60
2022-10-25T20:46:29.195Z,8.50
2022-10-25T20:48:58.524Z,8.50
2022-10-25T20:51:26.739Z,8.40
2022-10-25T20:53:56.834Z,8.30
2022-10-25T20:56:25.121Z,8.20
2022-10-25T20:58:53.106Z,8.10
2022-10-25T21:01:21.199Z,8.10
2022-10-25T21:03:49.249Z,8.10
2022-10-25T21:06:17.173Z,8.00
2022-10-25T21:08:45.072Z,8.00
2022-10-25T21:11:14.887Z,7.90
2022-10-25T21:13:42.826Z,7.90
2022-10-25T21:16:12.709Z,7.90
2022-10-25T21:18:41.230Z,7.90
2022-10-25T21:21:10.994Z,7.90
2022-10-25T21:23:38.920Z,8.00
2022-10-25T21:26:09.456Z,8.00
2022-10-25T21:28:40.314Z,7.90
2022-10-25T21:31:10.943Z,7.90
2022-10-25T21:33:39.076Z,7.90
2022-10-25T21:36:08.834Z,8.00
2022-10-25T21:38:37.456Z,8.00
2022-10-25T21:41:10.212Z,7.90
2022-10-25T21:43:42.798Z,7.90
2022-10-25T21:46:11.002Z,7.90
2022-10-25T21:48:38.916Z,7.80
2022-10-25T21:51:07.253Z,7.90
2022-10-25T21:53:35.599Z,8.00
2022-10-25T21:56:05.377Z,8.00
2022-10-25T21:58:33.287Z,8.10
2022-10-25T22:01:02.819Z,7.90
2022-10-25T22:03:31.348Z,7.90
2022-10-25T22:05:59.288Z,7.90
2022-10-25T22:08:27.183Z,7.90
2022-10-25T22:13:32.602Z,7.90
2022-10-25T22:16:04.650Z,7.90
2022-10-25T22:18:32.873Z,7.90
2022-10-25T22:21:02.510Z,7.80
2022-10-25T22:23:31.855Z,7.80
2022-10-25T22:26:02.311Z,7.80
2022-10-25T22:28:30.225Z,7.70
2022-10-25T22:30:58.793Z,7.70
2022-10-25T22:33:28.029Z,7.70
2022-10-25T22:35:56.121Z,7.70
2022-10-25T22:38:24.074Z,7.70
2022-10-25T22:40:59.076Z,7.60
2022-10-25T22:43:27.216Z,7.70
2022-10-25T22:45:55.549Z,7.70
2022-10-25T22:48:23.877Z,7.70
2022-10-25T22:50:54.709Z,7.80
2022-10-25T22:53:23.300Z,7.80
2022-10-25T22:55:55.953Z,8.00
2022-10-25T22:58:24.366Z,8.00
2022-10-25T23:00:52.851Z,7.90
2022-10-25T23:03:20.733Z,7.90
2022-10-25T23:05:48.649Z,7.80
2022-10-25T23:08:18.073Z,7.80
2022-10-25T23:10:45.953Z,7.70
2022-10-25T23:13:13.860Z,7.70
2022-10-25T23:15:41.818Z,7.70
2022-10-25T23:18:09.677Z,7.70
2022-10-25T23:20:37.581Z,7.80
2022-10-25T23:23:05.525Z,7.80
2022-10-25T23:25:35.680Z,7.70
2022-10-25T23:28:03.554Z,7.70
2022-10-25T23:30:33.536Z,7.80
2022-10-25T23:33:01.518Z,7.80
2022-10-25T23:35:29.608Z,7.90
2022-10-25T23:37:57.685Z,7.90
2022-10-25T23:40:25.631Z,8.00
2022-10-25T23:42:54.933Z,8.00
2022-10-25T23:45:22.821Z,8.00
2022-10-25T23:47:51.002Z,8.00
2022-10-25T23:50:19.178Z,8.00
2022-10-25T23:52:47.444Z,8.00
2022-10-25T23:55:15.663Z,8.00
2022-10-25T23:57:43.633Z,7.90
